PPR Request

Prior permission is required for take-offs and landings. Make a prior permission request here on day of flight.

Traffic Circuit Slot

Make your PPR request first, then the TC slot reservation. Price 5 € / 15 minute slot.

Aerodrome Info

Updated 15 FEB 2019 19:46 LT

  • RWY reported mostly dry,
  • TWY:s and APN:s wet and partly icy and slippery.
  • Large waterponds at B and J
  • High snow banks on the edges of RWY and TWY:s.
  • Some RWY and TWY lights covered by snow. Use caution.
  • Pref RWY

Contact duty officer at +358 20 7545 129 for more information.

Remember to close your flight plan: ACC tel. +358 3 286 5172.

Weather


Helsinki Malmi lentokenttä
AWS ILHF 160240Z AUTO 21008KT 0250 FG VV/// 01/01 Q1011=



Helsinki-Malmin lentoasema

Welcome to Helsinki-Malmi Airport

Helsinki-Malmi is the busiest general aviation airport in Finland, operated by Malmi Airfield Association.

Behind the association are organizations, companies and persons operating at the Malmi Airport.

The Association’s work is funded by membership fees and season card fees. The Association needs both full members and supporting members to finance its activity.

Be involved in continuing Malmi’s aviation activities and join as a member!